Time;durP1;ratioP1;P1;durP2;ratioP2;P2;SDS_P1;SDS_P2;PMS_P1;PMS_P2;Temp;Humidity;BMP_temperature;BMP_pressure;BME280_temperature;BME280_humidity;BME280_pressure;Samples;Min_cycle;Max_cycle;Signal;HPM_P1;HPM_P2
2022/10/23 00:01:27;;;;;;;27.63;21.67;;;10.30;99.90;;;;;;4933214;29;20039;-75
2022/10/23 00:03:56;;;;;;;42.88;25.15;;;10.30;99.90;;;;;;4933192;29;20139;-75
2022/10/23 00:06:24;;;;;;;31.35;22.60;;;10.30;99.90;;;;;;4933183;29;20499;-75
2022/10/23 00:08:50;;;;;;;33.72;23.00;;;10.30;99.90;;;;;;4932971;29;20528;-75
2022/10/23 00:11:28;;;;;;;52.95;26.45;;;10.30;99.90;;;;;;4933038;29;20086;-75
2022/10/23 00:13:56;;;;;;;42.50;26.42;;;10.30;99.90;;;;;;4933070;29;20517;-75
2022/10/23 00:16:21;;;;;;;43.15;25.65;;;10.30;99.90;;;;;;4949107;29;20049;-75
2022/10/23 00:18:47;;;;;;;29.25;22.48;;;10.40;99.90;;;;;;4948868;29;20047;-75
2022/10/23 00:21:14;;;;;;;36.60;24.75;;;10.30;99.90;;;;;;4933046;29;20087;-75
2022/10/23 00:23:40;;;;;;;36.78;24.55;;;10.30;99.90;;;;;;4933078;29;20047;-75
2022/10/23 00:26:07;;;;;;;30.35;22.40;;;10.40;99.90;;;;;;4933202;29;20054;-75
2022/10/23 00:28:33;;;;;;;32.80;23.52;;;10.40;99.90;;;;;;4933019;29;20441;-75
2022/10/23 00:31:04;;;;;;;45.10;26.35;;;10.30;99.90;;;;;;4948864;29;20044;-75
2022/10/23 00:33:30;;;;;;;42.63;25.75;;;10.40;99.90;;;;;;4932798;29;20042;-75
2022/10/23 00:35:55;;;;;;;43.95;26.58;;;10.40;99.90;;;;;;4933201;29;20036;-75
2022/10/23 00:38:21;;;;;;;31.77;24.85;;;10.40;99.90;;;;;;4948609;29;20045;-75
2022/10/23 00:40:46;;;;;;;37.70;25.10;;;10.40;99.90;;;;;;4933208;29;20168;-75
2022/10/23 00:43:22;;;;;;;35.20;24.60;;;10.40;99.90;;;;;;4933052;29;20044;-75
2022/10/23 00:45:48;;;;;;;39.28;25.73;;;10.40;99.90;;;;;;4932924;29;20047;-75
2022/10/23 00:48:14;;;;;;;31.27;24.13;;;10.40;99.90;;;;;;4932681;29;20035;-75
2022/10/23 00:50:40;;;;;;;41.95;26.15;;;10.40;99.90;;;;;;4936184;29;20074;-75
2022/10/23 00:53:08;;;;;;;53.22;27.95;;;10.40;99.90;;;;;;4936409;29;20094;-75
2022/10/23 00:55:35;;;;;;;49.90;29.55;;;10.30;99.90;;;;;;4936421;29;20561;-75
2022/10/23 00:58:01;;;;;;;59.03;31.48;;;10.30;99.90;;;;;;4920221;29;20082;-75
2022/10/23 01:00:45;;;;;;;35.45;26.38;;;10.30;99.90;;;;;;4936542;29;20402;-75
2022/10/23 01:03:12;;;;;;;63.55;30.77;;;10.30;99.90;;;;;;4936286;29;20047;-75
2022/10/23 01:05:55;;;;;;;62.58;31.63;;;10.30;99.90;;;;;;4936485;29;20050;-75
2022/10/23 01:08:45;;;;;;;56.40;31.88;;;10.30;99.90;;;;;;4936374;29;20074;-75
2022/10/23 01:11:19;;;;;;;44.92;28.27;;;10.30;99.90;;;;;;4936018;29;20051;-75
2022/10/23 01:14:14;;;;;;;34.83;24.75;;;10.40;99.90;;;;;;4936208;29;20047;-75
2022/10/23 01:17:06;;;;;;;32.35;24.05;;;10.40;99.90;;;;;;4936145;29;20123;-75
2022/10/23 01:19:54;;;;;;;43.63;25.90;;;10.30;99.90;;;;;;4936069;29;20043;-75
2022/10/23 01:23:03;;;;;;;41.33;26.08;;;10.20;99.90;;;;;;4936160;29;20052;-74
2022/10/23 01:26:03;;;;;;;34.85;24.55;;;10.20;99.90;;;;;;4886712;29;20063;-75
2022/10/23 01:28:55;;;;;;;30.60;23.83;;;10.20;99.90;;;;;;4936127;29;20054;-75
2022/10/23 01:31:32;;;;;;;35.05;25.20;;;10.20;99.90;;;;;;4930318;29;20107;-74
2022/10/23 01:34:11;;;;;;;36.85;24.70;;;10.10;99.90;;;;;;4936113;29;20390;-75
2022/10/23 01:36:40;;;;;;;36.08;24.98;;;10.10;99.90;;;;;;4951646;29;20075;-75
2022/10/23 01:39:10;;;;;;;36.22;24.40;;;10.10;99.90;;;;;;4935479;29;20044;-74
2022/10/23 01:41:50;;;;;;;37.22;23.77;;;10.00;99.90;;;;;;4935474;29;20131;-75
2022/10/23 01:44:30;;;;;;;27.75;21.50;;;10.00;99.90;;;;;;4951747;29;20044;-75
2022/10/23 01:46:56;;;;;;;30.23;22.85;;;10.00;99.90;;;;;;4935477;29;20106;-75
2022/10/23 01:49:23;;;;;;;32.42;23.10;;;9.90;99.90;;;;;;4935868;29;20439;-75
2022/10/23 01:51:58;;;;;;;50.72;27.08;;;9.90;99.90;;;;;;4935539;29;20091;-75
2022/10/23 01:54:29;;;;;;;35.13;24.40;;;9.90;99.90;;;;;;4935376;29;20082;-75
2022/10/23 01:56:57;;;;;;;37.15;24.73;;;9.90;99.90;;;;;;4951069;29;20040;-75
2022/10/23 01:59:28;;;;;;;30.35;21.88;;;9.80;99.90;;;;;;4951092;29;20569;-75
2022/10/23 02:01:56;;;;;;;32.72;23.10;;;9.90;99.90;;;;;;4935219;29;20044;-75
2022/10/23 02:04:39;;;;;;;47.78;26.15;;;9.80;99.90;;;;;;4951184;29;20048;-75
2022/10/23 02:07:05;;;;;;;36.08;22.63;;;9.80;99.90;;;;;;4919063;29;20039;-74
2022/10/23 02:09:31;;;;;;;33.90;25.00;;;9.80;99.90;;;;;;4935365;29;20043;-74
2022/10/23 02:12:04;;;;;;;44.03;27.15;;;9.70;99.90;;;;;;4934867;29;20043;-75
2022/10/23 02:15:07;;;;;;;40.22;26.23;;;9.80;99.90;;;;;;4951067;29;20054;-75
2022/10/23 02:17:46;;;;;;;45.22;26.73;;;9.80;99.90;;;;;;4902817;29;20055;-75
2022/10/23 02:20:19;;;;;;;47.55;29.83;;;9.80;99.90;;;;;;4935215;29;20156;-75
2022/10/23 02:23:04;;;;;;;55.45;31.30;;;9.80;99.90;;;;;;4934805;29;20047;-74
2022/10/23 02:25:36;;;;;;;41.25;28.65;;;9.90;99.90;;;;;;4934831;29;20051;-75
2022/10/23 02:28:06;;;;;;;54.65;30.42;;;9.90;99.90;;;;;;4934685;29;20044;-75
2022/10/23 02:30:36;;;;;;;69.53;32.40;;;9.90;99.90;;;;;;4934709;29;20039;-75
2022/10/23 02:33:04;;;;;;;51.40;30.80;;;9.90;99.90;;;;;;4950691;29;20065;-75
2022/10/23 02:35:29;;;;;;;40.75;27.95;;;9.90;99.90;;;;;;4934692;29;20047;-75
2022/10/23 02:37:57;;;;;;;46.35;28.63;;;9.90;99.90;;;;;;4934632;29;20044;-75
2022/10/23 02:40:32;;;;;;;50.08;30.45;;;10.00;99.90;;;;;;4934666;29;20040;-75
2022/10/23 02:43:03;;;;;;;47.38;30.98;;;10.00;99.90;;;;;;4934438;29;20499;-74
2022/10/23 02:45:50;;;;;;;54.00;30.45;;;10.00;99.90;;;;;;4950690;29;20058;-75
2022/10/23 02:48:41;;;;;;;45.13;28.55;;;10.00;99.90;;;;;;4934402;29;20498;-75
2022/10/23 02:51:31;;;;;;;50.08;28.48;;;10.00;99.90;;;;;;4934280;29;20054;-75
2022/10/23 02:54:19;;;;;;;48.40;28.92;;;9.90;99.90;;;;;;4899976;29;20392;-75
2022/10/23 02:56:54;;;;;;;46.15;27.50;;;10.00;99.90;;;;;;4934314;29;20529;-75
2022/10/23 02:59:46;;;;;;;51.00;29.80;;;9.90;99.90;;;;;;4934235;29;20498;-75
2022/10/23 03:02:25;;;;;;;58.25;30.80;;;9.90;99.90;;;;;;4934384;29;20055;-75
2022/10/23 03:04:53;;;;;;;43.53;28.77;;;10.00;99.90;;;;;;4934048;29;20494;-75
2022/10/23 03:07:19;;;;;;;54.50;29.83;;;10.00;99.90;;;;;;4933852;29;20086;-75
2022/10/23 03:09:45;;;;;;;40.90;28.58;;;9.90;99.90;;;;;;4933996;29;20578;-75
2022/10/23 03:12:11;;;;;;;43.28;28.65;;;9.90;99.90;;;;;;4962390;23;20074;-75
2022/10/23 03:14:37;;;;;;;76.25;33.28;;;9.90;99.90;;;;;;4972512;28;20039;-75
2022/10/23 03:17:06;;;;;;;46.38;30.92;;;9.90;99.90;;;;;;4972152;28;20034;-75
2022/10/23 03:19:35;;;;;;;65.63;34.70;;;9.90;99.90;;;;;;4972145;28;20101;-75
2022/10/23 03:22:04;;;;;;;42.60;28.70;;;9.90;99.90;;;;;;4970687;28;20078;-76
2022/10/23 03:24:30;;;;;;;50.38;31.20;;;9.90;99.90;;;;;;4937213;29;20036;-76
2022/10/23 03:26:57;;;;;;;53.30;31.83;;;9.90;99.90;;;;;;4937115;29;20417;-75
2022/10/23 03:29:22;;;;;;;52.92;32.90;;;9.80;99.90;;;;;;4937444;29;20043;-76
2022/10/23 03:31:49;;;;;;;57.42;33.95;;;9.90;99.90;;;;;;4936952;29;20461;-76
2022/10/23 03:34:15;;;;;;;56.80;33.95;;;10.00;99.90;;;;;;4936614;29;20494;-76
2022/10/23 03:36:41;;;;;;;53.88;33.65;;;9.90;99.90;;;;;;4936469;28;20516;-75
2022/10/23 03:39:07;;;;;;;59.58;32.60;;;9.90;99.90;;;;;;4936818;29;20039;-76
2022/10/23 03:41:33;;;;;;;47.28;28.58;;;10.00;99.90;;;;;;4936982;29;20409;-75
2022/10/23 03:44:00;;;;;;;51.50;30.40;;;10.00;99.90;;;;;;4936849;29;20513;-76
2022/10/23 03:46:26;;;;;;;52.05;31.90;;;9.90;99.90;;;;;;4936738;29;20043;-76
2022/10/23 03:49:02;;;;;;;61.97;34.38;;;9.90;99.90;;;;;;4936369;29;20564;-76
2022/10/23 03:51:29;;;;;;;53.72;33.35;;;9.90;99.90;;;;;;4936892;29;20043;-75
2022/10/23 03:53:54;;;;;;;64.00;34.67;;;9.90;99.90;;;;;;4936753;29;20043;-76
2022/10/23 03:56:21;;;;;;;58.65;34.38;;;9.90;99.90;;;;;;4937137;29;20039;-76
2022/10/23 03:58:50;;;;;;;53.13;33.72;;;9.90;99.90;;;;;;4937210;29;20090;-76
2022/10/23 04:01:16;;;;;;;60.55;33.13;;;9.90;99.90;;;;;;4936580;29;20035;-75
2022/10/23 04:03:42;;;;;;;47.33;29.35;;;9.90;99.90;;;;;;4936247;28;20131;-76
2022/10/23 04:06:09;;;;;;;46.38;28.85;;;10.00;99.90;;;;;;4936802;29;20031;-76
2022/10/23 04:08:35;;;;;;;42.95;26.40;;;9.90;99.90;;;;;;4936398;29;20062;-75
2022/10/23 04:11:01;;;;;;;41.80;26.55;;;9.90;99.90;;;;;;4936870;29;20039;-76
2022/10/23 04:13:27;;;;;;;58.15;29.55;;;9.80;99.90;;;;;;4935869;29;20062;-75
2022/10/23 04:15:53;;;;;;;39.55;27.45;;;9.80;99.90;;;;;;4936603;29;20451;-75
2022/10/23 04:18:20;;;;;;;41.25;27.17;;;9.70;99.90;;;;;;4935902;28;20039;-75
2022/10/23 04:20:51;;;;;;;48.13;28.95;;;9.70;99.90;;;;;;4936265;29;20126;-76
2022/10/23 04:23:18;;;;;;;47.67;29.77;;;9.70;99.90;;;;;;4937699;29;20051;-76
2022/10/23 04:25:45;;;;;;;42.63;28.67;;;9.80;99.90;;;;;;4940107;29;20039;-76
2022/10/23 04:28:13;;;;;;;46.72;30.40;;;9.80;99.90;;;;;;4939964;29;20051;-76
2022/10/23 04:30:38;;;;;;;50.42;33.25;;;9.70;99.90;;;;;;4939804;28;20343;-76
2022/10/23 04:33:04;;;;;;;43.83;30.10;;;9.70;99.90;;;;;;4940212;29;20501;-76
2022/10/23 04:35:30;;;;;;;51.75;30.60;;;9.80;99.90;;;;;;4940075;29;20039;-75
2022/10/23 04:37:57;;;;;;;53.45;32.25;;;9.80;99.90;;;;;;4939787;29;20087;-76
2022/10/23 04:40:23;;;;;;;53.67;32.03;;;9.90;99.90;;;;;;4940035;29;20043;-76
2022/10/23 04:42:48;;;;;;;48.40;30.92;;;9.90;99.90;;;;;;4939776;29;20044;-76
2022/10/23 04:45:15;;;;;;;50.75;32.25;;;9.80;99.90;;;;;;4939932;28;20057;-76
2022/10/23 04:47:41;;;;;;;60.17;32.28;;;9.80;99.90;;;;;;4939874;28;20176;-76
2022/10/23 04:50:10;;;;;;;52.58;31.40;;;9.90;99.90;;;;;;4939776;29;20066;-76
2022/10/23 04:52:36;;;;;;;57.08;32.05;;;9.80;99.90;;;;;;4939466;29;20043;-76
2022/10/23 04:55:03;;;;;;;64.13;33.25;;;9.80;99.90;;;;;;4939563;29;20035;-76
2022/10/23 04:57:31;;;;;;;51.83;31.55;;;9.80;99.90;;;;;;4939968;29;20125;-76
2022/10/23 04:59:57;;;;;;;69.10;35.78;;;9.90;99.90;;;;;;4939446;28;20224;-76
2022/10/23 05:02:23;;;;;;;70.85;35.72;;;9.90;99.90;;;;;;4939464;29;20075;-76
2022/10/23 05:04:49;;;;;;;59.33;32.75;;;9.90;99.90;;;;;;4939872;29;20062;-76
2022/10/23 05:07:15;;;;;;;60.60;33.20;;;9.90;99.90;;;;;;4939377;29;20039;-76
2022/10/23 05:09:47;;;;;;;69.93;36.30;;;9.90;99.90;;;;;;4939316;29;20039;-76
2022/10/23 05:12:14;;;;;;;79.10;36.15;;;9.90;99.90;;;;;;4938922;28;20045;-76
2022/10/23 05:14:40;;;;;;;62.97;33.72;;;9.90;99.90;;;;;;4939782;29;20031;-76
2022/10/23 05:17:19;;;;;;;58.97;34.25;;;9.90;99.90;;;;;;4939088;29;20551;-76
2022/10/23 05:19:52;;;;;;;54.05;34.15;;;9.90;99.90;;;;;;4939473;29;20489;-76
2022/10/23 05:22:19;;;;;;;66.80;34.15;;;10.00;99.90;;;;;;4939090;29;20039;-76
2022/10/23 05:24:46;;;;;;;52.13;33.50;;;10.00;99.90;;;;;;4938947;29;20123;-76
2022/10/23 05:27:14;;;;;;;67.00;35.22;;;10.00;99.90;;;;;;4938657;28;20086;-75
2022/10/23 05:29:46;;;;;;;72.32;35.45;;;10.00;99.90;;;;;;4938995;29;20071;-75
2022/10/23 05:32:14;;;;;;;60.03;33.80;;;10.00;99.90;;;;;;4938898;28;20096;-75
2022/10/23 05:34:41;;;;;;;58.40;33.17;;;10.00;99.90;;;;;;4938030;29;20051;-75
2022/10/23 05:37:10;;;;;;;64.20;35.28;;;10.00;99.90;;;;;;4937988;29;20043;-75
2022/10/23 05:39:36;;;;;;;61.08;34.33;;;10.10;99.90;;;;;;4939275;28;20043;-76
2022/10/23 05:42:02;;;;;;;59.08;34.20;;;10.00;99.90;;;;;;4938961;28;20065;-76
2022/10/23 05:44:35;;;;;;;54.53;32.97;;;10.10;99.90;;;;;;4938773;29;20047;-75
2022/10/23 05:47:04;;;;;;;51.67;31.73;;;10.10;99.90;;;;;;4938569;29;20039;-75
2022/10/23 05:49:30;;;;;;;57.63;33.40;;;10.20;99.90;;;;;;4939057;29;20074;-76
2022/10/23 05:51:56;;;;;;;55.03;33.00;;;10.20;99.90;;;;;;4938602;28;20113;-76
2022/10/23 05:54:22;;;;;;;50.92;31.98;;;10.30;99.90;;;;;;4938688;29;20494;-76
2022/10/23 05:56:48;;;;;;;64.80;34.47;;;10.20;99.90;;;;;;4938488;29;20097;-75
2022/10/23 05:59:15;;;;;;;62.80;34.28;;;10.20;99.90;;;;;;4938333;29;20046;-75
2022/10/23 06:01:43;;;;;;;48.60;32.25;;;10.20;99.90;;;;;;4938346;29;20536;-76
2022/10/23 06:04:14;;;;;;;46.50;31.38;;;10.20;99.90;;;;;;4938450;29;20054;-75
2022/10/23 06:06:48;;;;;;;60.92;33.15;;;10.30;99.90;;;;;;4939043;28;20267;-75
2022/10/23 06:09:18;;;;;;;51.67;31.38;;;10.30;99.90;;;;;;4938438;29;20050;-76
2022/10/23 06:11:46;;;;;;;49.50;31.35;;;10.30;99.90;;;;;;4938613;29;20047;-76
2022/10/23 06:14:13;;;;;;;47.67;31.27;;;10.30;99.90;;;;;;4938271;29;20074;-76
2022/10/23 06:16:41;;;;;;;50.40;33.05;;;10.30;99.90;;;;;;4938405;29;20122;-76
2022/10/23 06:19:11;;;;;;;48.47;32.10;;;10.30;99.90;;;;;;4938197;28;20131;-75
2022/10/23 06:21:38;;;;;;;50.08;33.28;;;10.30;99.90;;;;;;4938330;29;20379;-76
2022/10/23 06:24:05;;;;;;;49.22;30.88;;;10.40;99.90;;;;;;4937905;29;20267;-76
2022/10/23 06:26:34;;;;;;;45.53;31.05;;;10.40;99.90;;;;;;4938014;29;20043;-76
2022/10/23 06:29:03;;;;;;;51.47;31.27;;;10.40;99.90;;;;;;4937835;29;20039;-76
2022/10/23 06:31:29;;;;;;;45.67;29.75;;;10.40;99.90;;;;;;4937934;28;20094;-75
2022/10/23 06:33:57;;;;;;;43.90;30.17;;;10.40;99.90;;;;;;4938178;28;20042;-76
2022/10/23 06:36:23;;;;;;;41.83;29.52;;;10.50;99.90;;;;;;4937458;29;20518;-76
2022/10/23 06:38:50;;;;;;;46.47;28.95;;;10.50;99.90;;;;;;4937689;29;20129;-76
2022/10/23 06:41:19;;;;;;;39.45;28.38;;;10.50;99.90;;;;;;4937437;29;20035;-75
2022/10/23 06:43:53;;;;;;;47.25;30.02;;;10.50;99.90;;;;;;4937505;29;20498;-76
2022/10/23 06:46:20;;;;;;;38.97;27.95;;;10.50;99.90;;;;;;4936344;28;20047;-76
2022/10/23 06:48:49;;;;;;;38.63;27.58;;;10.50;99.90;;;;;;4937485;29;20035;-76
2022/10/23 06:51:17;;;;;;;50.88;29.45;;;10.50;99.90;;;;;;4937515;29;20402;-76
2022/10/23 06:53:44;;;;;;;41.33;28.13;;;10.50;99.90;;;;;;4937875;29;20071;-76
2022/10/23 06:56:13;;;;;;;47.85;30.05;;;10.60;99.90;;;;;;4939460;29;20398;-76
2022/10/23 06:58:42;;;;;;;46.40;28.10;;;10.60;99.90;;;;;;4937600;28;20405;-76
2022/10/23 07:01:11;;;;;;;37.25;27.63;;;10.60;99.90;;;;;;4937292;29;20047;-76
2022/10/23 07:03:38;;;;;;;36.97;26.17;;;10.60;99.90;;;;;;4936902;29;20524;-75
2022/10/23 07:06:09;;;;;;;35.90;26.25;;;10.60;99.90;;;;;;4937206;29;20563;-76
2022/10/23 07:08:42;;;;;;;33.80;26.35;;;10.60;99.90;;;;;;5142233;27;20191;-76
2022/10/23 07:11:09;;;;;;;32.72;25.83;;;10.70;99.90;;;;;;5091162;28;20047;-76
2022/10/23 07:13:37;;;;;;;34.13;25.15;;;10.70;99.90;;;;;;5091444;28;20044;-75
2022/10/23 07:16:16;;;;;;;35.90;24.77;;;10.70;99.90;;;;;;5091347;28;20036;-75
2022/10/23 07:18:43;;;;;;;32.88;25.15;;;10.80;99.90;;;;;;5090966;28;20051;-75
2022/10/23 07:21:09;;;;;;;31.50;24.73;;;10.80;99.90;;;;;;5085824;23;20038;-74
2022/10/23 07:23:35;;;;;;;30.88;25.15;;;10.80;99.90;;;;;;5047536;28;20091;-74
2022/10/23 07:26:09;;;;;;;30.90;25.10;;;10.90;99.90;;;;;;5030882;28;20049;-74
2022/10/23 07:28:35;;;;;;;34.67;25.27;;;10.90;99.90;;;;;;5047271;28;20053;-74
2022/10/23 07:31:01;;;;;;;38.03;25.45;;;10.90;99.90;;;;;;5047282;28;20037;-74
2022/10/23 07:33:26;;;;;;;36.78;24.70;;;11.00;99.90;;;;;;5030745;28;20487;-74
2022/10/23 07:35:52;;;;;;;37.80;25.50;;;11.00;99.90;;;;;;5047296;28;20037;-74
2022/10/23 07:38:18;;;;;;;30.95;24.15;;;11.00;99.90;;;;;;5047207;28;20103;-74
2022/10/23 07:40:44;;;;;;;41.35;25.38;;;11.10;99.90;;;;;;5047466;28;20508;-74
2022/10/23 07:43:09;;;;;;;41.70;26.52;;;11.10;99.90;;;;;;5030573;28;20155;-74
2022/10/23 07:45:35;;;;;;;47.88;28.05;;;11.10;99.90;;;;;;5047139;28;20075;-74
2022/10/23 07:48:01;;;;;;;36.35;25.30;;;11.20;99.90;;;;;;5030086;28;20053;-74
2022/10/23 07:50:26;;;;;;;30.98;22.70;;;11.20;99.90;;;;;;5046987;28;20033;-74
2022/10/23 07:52:52;;;;;;;40.75;26.50;;;11.30;99.90;;;;;;5046934;28;20076;-74
2022/10/23 07:55:17;;;;;;;30.23;23.20;;;11.30;99.90;;;;;;5047183;28;20041;-74
2022/10/23 07:57:43;;;;;;;34.38;23.73;;;11.30;99.90;;;;;;5046724;28;20037;-74
2022/10/23 08:00:10;;;;;;;32.50;24.02;;;11.40;99.90;;;;;;5046702;28;20049;-74
2022/10/23 08:02:36;;;;;;;35.97;24.40;;;11.40;99.90;;;;;;5046762;28;20183;-74
2022/10/23 08:05:01;;;;;;;31.77;23.10;;;11.50;99.90;;;;;;5046675;28;20128;-74
2022/10/23 08:07:27;;;;;;;36.70;23.65;;;11.50;99.90;;;;;;5029745;28;20041;-74
2022/10/23 08:09:52;;;;;;;28.02;21.25;;;11.60;99.90;;;;;;5029940;28;20056;-74
2022/10/23 08:12:18;;;;;;;28.67;21.23;;;11.60;99.90;;;;;;5046555;28;20033;-74
2022/10/23 08:14:44;;;;;;;31.95;21.67;;;11.60;99.90;;;;;;5030050;28;20037;-74
2022/10/23 08:17:10;;;;;;;24.70;20.88;;;11.70;99.90;;;;;;5029747;28;20048;-74
2022/10/23 08:19:36;;;;;;;25.98;20.65;;;11.70;99.90;;;;;;5035673;28;20045;-75
2022/10/23 08:22:02;;;;;;;26.42;19.05;;;11.80;99.90;;;;;;5016684;28;20514;-75
2022/10/23 08:24:28;;;;;;;25.25;19.33;;;11.90;99.90;;;;;;5033406;28;20081;-75
2022/10/23 08:26:54;;;;;;;29.10;20.27;;;11.90;99.90;;;;;;5016885;28;20049;-75
2022/10/23 08:29:20;;;;;;;27.45;19.95;;;12.00;99.90;;;;;;5033095;28;20037;-75
2022/10/23 08:31:45;;;;;;;32.88;22.38;;;12.10;99.90;;;;;;5032966;28;20454;-75
2022/10/23 08:34:12;;;;;;;33.05;21.70;;;12.10;99.90;;;;;;5032907;28;20037;-75
2022/10/23 08:36:38;;;;;;;25.13;19.25;;;12.20;99.90;;;;;;5032923;28;20220;-75
2022/10/23 08:39:04;;;;;;;22.67;18.92;;;12.30;99.90;;;;;;5016194;28;20041;-75
2022/10/23 08:41:42;;;;;;;24.50;18.17;;;12.30;99.90;;;;;;5016232;28;20526;-75
2022/10/23 08:44:13;;;;;;;23.60;16.92;;;12.40;99.90;;;;;;5033051;28;20124;-75
2022/10/23 08:46:44;;;;;;;24.85;18.75;;;12.50;99.90;;;;;;5032581;28;20045;-75
2022/10/23 08:49:27;;;;;;;18.58;16.48;;;12.50;99.90;;;;;;5032482;28;20033;-75
2022/10/23 08:51:56;;;;;;;23.02;17.40;;;12.60;99.90;;;;;;5033014;28;20519;-75
2022/10/23 08:54:32;;;;;;;20.98;17.10;;;12.70;99.90;;;;;;5032737;28;20072;-75
2022/10/23 08:57:09;;;;;;;22.10;15.90;;;12.70;99.90;;;;;;5016177;28;20037;-75
2022/10/23 08:59:42;;;;;;;21.00;15.85;;;12.80;99.90;;;;;;5032581;28;20072;-75
2022/10/23 09:02:15;;;;;;;22.98;16.77;;;12.90;99.90;;;;;;5032478;28;20491;-75
2022/10/23 09:04:45;;;;;;;22.13;16.77;;;12.90;99.90;;;;;;5032485;28;20072;-75
2022/10/23 09:07:31;;;;;;;16.85;14.65;;;13.00;99.90;;;;;;5032082;28;20078;-75
2022/10/23 09:10:32;;;;;;;19.25;14.95;;;13.00;99.90;;;;;;5032120;28;20041;-75
2022/10/23 09:13:16;;;;;;;17.08;13.88;;;13.10;99.90;;;;;;5032357;28;20037;-75
2022/10/23 09:15:48;;;;;;;19.65;14.18;;;13.10;99.90;;;;;;5015969;28;20033;-75
2022/10/23 09:18:15;;;;;;;16.98;14.05;;;13.20;99.90;;;;;;5032211;28;20103;-75
2022/10/23 09:20:44;;;;;;;16.08;13.32;;;13.20;99.90;;;;;;5031983;28;20045;-75
2022/10/23 09:23:18;;;;;;;16.10;12.88;;;13.20;99.90;;;;;;5015825;28;20045;-75
2022/10/23 09:25:46;;;;;;;15.98;12.80;;;13.30;99.90;;;;;;5032023;28;20053;-75
2022/10/23 09:28:19;;;;;;;17.60;11.13;;;13.30;99.90;;;;;;5031715;28;20129;-75
2022/10/23 09:30:45;;;;;;;12.65;11.27;;;13.40;99.90;;;;;;5030798;28;20072;-75
2022/10/23 09:33:25;;;;;;;14.45;12.60;;;13.40;99.90;;;;;;5031784;28;20068;-74
2022/10/23 09:35:51;;;;;;;11.85;10.55;;;13.40;99.90;;;;;;5031752;28;20073;-75
2022/10/23 09:38:45;;;;;;;14.32;11.50;;;13.40;99.90;;;;;;5031781;28;20087;-75
2022/10/23 09:41:26;;;;;;;14.70;10.85;;;13.50;99.90;;;;;;5031611;28;20041;-75
2022/10/23 09:44:06;;;;;;;13.93;10.13;;;13.60;99.90;;;;;;5031757;28;20140;-75
2022/10/23 09:46:44;;;;;;;13.65;10.07;;;13.60;99.90;;;;;;5031456;28;20053;-75
2022/10/23 09:49:18;;;;;;;10.73;9.63;;;13.60;99.90;;;;;;5014808;28;20038;-75
2022/10/23 09:52:10;;;;;;;11.13;9.27;;;13.70;99.90;;;;;;5031661;28;20172;-75
2022/10/23 09:54:42;;;;;;;10.00;8.95;;;13.70;99.90;;;;;;5024693;28;20049;-75
2022/10/23 09:57:19;;;;;;;10.65;9.52;;;13.80;99.90;;;;;;5031213;28;20125;-75
2022/10/23 09:59:54;;;;;;;10.18;9.18;;;13.80;99.90;;;;;;5014725;28;20041;-75
2022/10/23 10:02:31;;;;;;;11.65;9.75;;;13.90;99.90;;;;;;5014735;28;20052;-75
2022/10/23 10:04:57;;;;;;;10.52;8.88;;;13.90;99.90;;;;;;5031294;28;20041;-75
2022/10/23 10:07:25;;;;;;;10.48;8.93;;;14.00;99.90;;;;;;5031061;28;20500;-75
2022/10/23 10:09:53;;;;;;;10.27;8.70;;;14.00;99.90;;;;;;5031014;28;20064;-76
2022/10/23 10:12:36;;;;;;;15.25;9.00;;;14.10;99.90;;;;;;5031056;28;20044;-75
2022/10/23 10:15:20;;;;;;;10.02;9.02;;;14.20;99.90;;;;;;5031097;28;20030;-75
2022/10/23 10:18:05;;;;;;;9.93;8.45;;;14.30;99.90;;;;;;5030800;28;20136;-75
2022/10/23 10:20:55;;;;;;;9.40;8.30;;;14.40;99.90;;;;;;5031060;28;20049;-75
2022/10/23 10:23:39;;;;;;;11.57;8.23;;;14.40;99.90;;;;;;5031184;28;20438;-75
2022/10/23 10:26:22;;;;;;;8.40;7.60;;;14.50;99.90;;;;;;5030883;28;20045;-76
2022/10/23 10:29:09;;;;;;;9.10;7.93;;;14.50;99.90;;;;;;5030824;28;20073;-75
2022/10/23 10:31:47;;;;;;;8.20;6.97;;;14.50;99.90;;;;;;5031020;28;20045;-75
2022/10/23 10:34:51;;;;;;;10.82;6.60;;;14.50;99.90;;;;;;5030985;28;20073;-75
2022/10/23 10:37:22;;;;;;;;;;;14.50;99.90;;;;;;5013416;28;20049;-75
2022/10/23 10:40:15;;;;;;;10.45;7.38;;;14.50;99.90;;;;;;5030835;28;19917;-75
2022/10/23 10:42:54;;;;;;;11.68;8.00;;;14.60;99.90;;;;;;5013925;28;20081;-75
2022/10/23 10:45:30;;;;;;;10.10;7.35;;;14.50;99.90;;;;;;5030858;28;20049;-75
2022/10/23 10:48:19;;;;;;;9.45;7.70;;;14.50;99.90;;;;;;5013888;28;20049;-75
2022/10/23 10:50:56;;;;;;;10.57;8.45;;;14.60;99.90;;;;;;5014065;28;20052;-76
2022/10/23 10:53:57;;;;;;;10.35;7.70;;;14.60;99.90;;;;;;5030749;28;20391;-75
2022/10/23 10:56:29;;;;;;;12.52;7.90;;;14.50;99.90;;;;;;4973654;28;20035;-75
2022/10/23 10:58:59;;;;;;;9.82;7.85;;;14.40;99.90;;;;;;5010302;28;20057;-75
2022/10/23 11:01:49;;;;;;;13.00;7.35;;;14.50;99.90;;;;;;5014024;28;20160;-75
2022/10/23 11:04:17;;;;;;;7.40;6.63;;;14.50;99.90;;;;;;5030737;28;20053;-75
2022/10/23 11:06:46;;;;;;;9.35;6.47;;;14.50;99.90;;;;;;5030275;28;20056;-75
2022/10/23 11:09:27;;;;;;;9.55;6.65;;;14.50;99.90;;;;;;5013710;28;20043;-75
2022/10/23 11:11:52;;;;;;;9.77;7.30;;;14.50;99.90;;;;;;5030838;28;20514;-75
2022/10/23 11:14:24;;;;;;;9.30;6.57;;;14.50;99.90;;;;;;5030304;28;20069;-75
2022/10/23 11:16:53;;;;;;;14.15;7.18;;;14.50;99.90;;;;;;5030232;28;20041;-75
2022/10/23 11:19:25;;;;;;;9.80;7.03;;;14.50;99.90;;;;;;5030144;28;20049;-75
2022/10/23 11:22:18;;;;;;;10.70;7.03;;;14.50;99.90;;;;;;5013784;28;20048;-75
2022/10/23 11:25:20;;;;;;;9.00;6.32;;;14.60;99.90;;;;;;5013841;28;20252;-75
2022/10/23 11:27:56;;;;;;;9.50;6.85;;;14.60;99.90;;;;;;5029978;28;20506;-75
2022/10/23 11:31:01;;;;;;;8.63;6.80;;;14.70;99.90;;;;;;5030170;28;20049;-75
2022/10/23 11:33:38;;;;;;;8.30;7.43;;;14.70;99.90;;;;;;5029703;28;20033;-75
2022/10/23 11:36:14;;;;;;;9.93;8.05;;;14.70;99.90;;;;;;5030179;28;20065;-75
2022/10/23 11:38:44;;;;;;;6.82;6.13;;;14.70;99.90;;;;;;5030236;28;20042;-75
2022/10/23 11:41:32;;;;;;;10.35;5.85;;;14.70;99.90;;;;;;5029929;28;20037;-75
2022/10/23 11:44:02;;;;;;;9.70;6.00;;;14.80;99.90;;;;;;5029940;28;20050;-75
2022/10/23 11:46:29;;;;;;;7.85;5.75;;;14.80;99.90;;;;;;5029914;28;20531;-75
2022/10/23 11:48:56;;;;;;;9.45;5.70;;;14.80;99.90;;;;;;5013505;28;20048;-75
2022/10/23 11:51:40;;;;;;;10.43;5.75;;;14.80;99.90;;;;;;5029910;28;20047;-75
2022/10/23 11:54:26;;;;;;;9.05;6.40;;;14.80;99.90;;;;;;5015099;28;20037;-75
2022/10/23 11:57:11;;;;;;;6.22;5.60;;;14.80;99.90;;;;;;5033214;28;20045;-75
2022/10/23 11:59:50;;;;;;;6.65;5.53;;;14.80;99.90;;;;;;5033549;28;20042;-75
2022/10/23 12:02:37;;;;;;;8.70;6.10;;;14.70;99.90;;;;;;5033871;28;20045;-75
2022/10/23 12:05:34;;;;;;;11.18;6.15;;;14.80;99.90;;;;;;5033551;28;20053;-75
2022/10/23 12:08:02;;;;;;;8.02;5.78;;;14.80;99.90;;;;;;5016717;28;20037;-75
2022/10/23 12:10:45;;;;;;;7.63;5.05;;;14.80;99.90;;;;;;5033634;28;20381;-75
2022/10/23 12:13:36;;;;;;;10.13;6.40;;;14.90;99.90;;;;;;5016887;28;20034;-75
2022/10/23 12:16:03;;;;;;;9.57;5.43;;;14.90;99.90;;;;;;5017287;28;20072;-75
2022/10/23 12:18:29;;;;;;;8.13;5.10;;;14.90;99.90;;;;;;5016880;28;20160;-75
2022/10/23 12:21:00;;;;;;;8.63;5.28;;;14.90;99.90;;;;;;5016686;28;20041;-75
2022/10/23 12:23:44;;;;;;;7.97;5.28;;;15.00;99.90;;;;;;5033162;28;20040;-75
2022/10/23 12:26:15;;;;;;;7.47;5.32;;;15.00;99.90;;;;;;5033241;28;20133;-75
2022/10/23 12:28:50;;;;;;;7.80;5.20;;;15.00;99.90;;;;;;5016409;28;20048;-75
2022/10/23 12:31:26;;;;;;;8.95;5.05;;;15.00;99.90;;;;;;5016591;28;20037;-75
2022/10/23 12:33:51;;;;;;;7.15;5.00;;;15.00;99.90;;;;;;5033120;28;20400;-75
2022/10/23 12:36:56;;;;;;;9.43;4.80;;;15.00;99.90;;;;;;5033222;28;20045;-75
2022/10/23 12:39:28;;;;;;;6.45;4.65;;;14.90;99.90;;;;;;5016459;28;20048;-75
2022/10/23 12:41:54;;;;;;;5.75;4.20;;;15.00;99.90;;;;;;5016401;28;20069;-75
2022/10/23 12:44:21;;;;;;;7.45;4.45;;;15.00;99.90;;;;;;5032909;28;20037;-75
2022/10/23 12:46:49;;;;;;;5.63;4.03;;;15.00;99.90;;;;;;5033099;28;20069;-75
2022/10/23 12:49:20;;;;;;;5.90;4.43;;;15.00;99.90;;;;;;5032631;28;20037;-75
2022/10/23 12:52:01;;;;;;;7.32;4.20;;;15.00;99.90;;;;;;5016631;28;20033;-75
2022/10/23 12:54:29;;;;;;;8.65;4.60;;;15.00;99.90;;;;;;5032830;28;20229;-75
2022/10/23 12:56:54;;;;;;;6.57;4.22;;;15.10;99.90;;;;;;5016024;28;20045;-75
2022/10/23 12:59:26;;;;;;;7.40;4.20;;;15.10;99.90;;;;;;5032860;28;20045;-75